Cedar, Minnesota
Current Conditions -  °F | °C
As of 3:14 AM on Friday 24 Oct 2014 (Local Time) from KANE Reporting Station
Clear Clear  
Wind Chill: 50°   Ceiling: Unl
Heat Index: 50°   Visibility: 7mi
Dew Point: 48°   Wind: 7mph
Humidity: 94%   Direction: 150°SSE
Pressure: 29.94"   Gusts: NA
Location:  45.32°N, 93.29°W
Report Text: KANE 240814Z AUTO 15006KT 7SM CLR 10/09 A2994 RMK AO2
Loading
Personal Weather Stations






























Interactive Weather Map
Tropical Storm Tracking
New forecast layout! Learn more

10-Day Weather Forecast

Advertisements
Track Severe Weather on mobile